createdAt,value
2022-09-07T00:01:47.974Z,2.80
2022-09-07T00:04:20.043Z,3.00
2022-09-07T00:06:51.780Z,3.30
2022-09-07T00:09:26.592Z,3.00
2022-09-07T00:11:58.335Z,3.30
2022-09-07T00:14:32.177Z,3.30
2022-09-07T00:17:05.714Z,3.50
2022-09-07T00:19:37.432Z,3.20
2022-09-07T00:22:10.455Z,3.10
2022-09-07T00:24:42.179Z,3.50
2022-09-07T00:27:13.918Z,3.90
2022-09-07T00:29:45.758Z,3.40
2022-09-07T00:32:17.557Z,3.70
2022-09-07T00:34:50.912Z,3.60
2022-09-07T00:37:22.604Z,4.10
2022-09-07T00:39:54.675Z,3.90
2022-09-07T00:42:26.455Z,4.10
2022-09-07T00:45:09.925Z,3.90
2022-09-07T00:47:46.820Z,5.10
2022-09-07T00:50:23.525Z,3.80
2022-09-07T00:52:59.266Z,3.90
2022-09-07T00:55:32.698Z,3.50
2022-09-07T00:58:05.719Z,3.60
2022-09-07T01:00:39.863Z,3.60
2022-09-07T01:03:13.709Z,4.00
2022-09-07T01:05:49.779Z,3.10
2022-09-07T01:08:22.253Z,3.40
2022-09-07T01:10:54.068Z,3.50
2022-09-07T01:13:27.989Z,3.90
2022-09-07T01:16:08.942Z,4.00
2022-09-07T01:18:53.385Z,3.50
2022-09-07T01:21:28.197Z,3.70
2022-09-07T01:24:35.419Z,4.20
2022-09-07T01:27:33.917Z,3.60
2022-09-07T01:30:10.695Z,3.90
2022-09-07T01:32:55.636Z,3.70
2022-09-07T01:35:40.135Z,4.10
2022-09-07T01:38:18.350Z,3.70
2022-09-07T01:40:54.744Z,3.80
2022-09-07T01:43:40.860Z,3.90
2022-09-07T01:46:18.466Z,3.80
2022-09-07T01:48:53.613Z,3.70
2022-09-07T01:51:34.501Z,3.90
2022-09-07T01:54:14.650Z,4.40
2022-09-07T01:56:58.801Z,4.10
2022-09-07T01:59:34.834Z,3.90
2022-09-07T02:02:10.143Z,4.00
2022-09-07T02:04:48.359Z,4.40
2022-09-07T02:07:25.604Z,3.40
2022-09-07T02:10:02.209Z,4.10
2022-09-07T02:12:41.479Z,3.80
2022-09-07T02:15:18.358Z,3.80
2022-09-07T02:17:55.069Z,4.20
2022-09-07T02:20:31.391Z,4.50
2022-09-07T02:23:07.177Z,4.10
2022-09-07T02:25:41.497Z,4.10
2022-09-07T02:28:18.416Z,4.10
2022-09-07T02:30:50.249Z,4.20
2022-09-07T02:33:22.287Z,3.70
2022-09-07T02:35:54.317Z,4.10
2022-09-07T02:38:26.622Z,4.70
2022-09-07T02:41:00.871Z,4.30
2022-09-07T02:43:33.515Z,4.10
2022-09-07T02:46:23.827Z,3.90
2022-09-07T02:49:05.621Z,4.10
2022-09-07T02:51:46.299Z,4.70
2022-09-07T02:54:39.506Z,4.40
2022-09-07T02:57:20.284Z,4.80
2022-09-07T03:00:04.231Z,4.40
2022-09-07T03:02:44.835Z,4.60
2022-09-07T03:05:22.919Z,4.40
2022-09-07T03:08:01.126Z,4.80
2022-09-07T03:10:33.389Z,4.10
2022-09-07T03:13:04.834Z,4.40
2022-09-07T03:15:36.536Z,4.20
2022-09-07T03:18:08.361Z,4.70
2022-09-07T03:20:40.083Z,4.70
2022-09-07T03:23:11.653Z,5.10
2022-09-07T03:28:17.477Z,4.80
2022-09-07T03:30:49.625Z,5.20
2022-09-07T03:36:01.646Z,5.50
2022-09-07T03:38:33.537Z,5.20
2022-09-07T03:41:07.274Z,6.10
2022-09-07T03:43:38.799Z,6.00
2022-09-07T03:46:11.201Z,6.00
2022-09-07T03:48:42.684Z,6.20
2022-09-07T03:51:15.531Z,6.40
2022-09-07T03:53:53.152Z,6.50
2022-09-07T03:56:25.811Z,6.00
2022-09-07T03:58:57.850Z,6.40
2022-09-07T04:01:29.722Z,6.20
2022-09-07T04:04:02.929Z,5.90
2022-09-07T04:06:34.632Z,6.00
2022-09-07T04:11:40.334Z,6.00
2022-09-07T04:14:12.906Z,6.20
2022-09-07T04:16:45.492Z,6.70
2022-09-07T04:19:17.097Z,6.30
2022-09-07T04:21:48.575Z,6.50
2022-09-07T04:24:20.886Z,6.30
2022-09-07T04:26:53.639Z,6.70
2022-09-07T04:29:27.179Z,6.40
2022-09-07T04:34:28.829Z,6.60
2022-09-07T04:39:30.380Z,6.40
2022-09-07T04:44:31.821Z,6.30
2022-09-07T04:49:33.340Z,6.50
2022-09-07T04:54:38.007Z,6.30
2022-09-07T04:57:14.633Z,6.60
2022-09-07T04:59:46.321Z,6.20
2022-09-07T05:02:17.907Z,6.00
2022-09-07T05:04:52.828Z,6.30
2022-09-07T05:07:24.910Z,6.60
2022-09-07T05:09:58.707Z,7.20
2022-09-07T05:12:30.541Z,6.90
2022-09-07T05:15:03.708Z,6.20
2022-09-07T05:17:35.281Z,6.40
2022-09-07T05:20:13.952Z,6.20
2022-09-07T05:22:48.124Z,6.10
2022-09-07T05:25:19.701Z,6.30
2022-09-07T05:27:51.189Z,6.10
2022-09-07T05:33:14.407Z,6.30
2022-09-07T05:35:47.957Z,5.90
2022-09-07T05:38:19.404Z,6.20
2022-09-07T05:40:50.896Z,6.30
2022-09-07T05:43:23.139Z,7.90
2022-09-07T05:45:57.177Z,7.10
2022-09-07T05:48:29.164Z,7.00
2022-09-07T05:51:00.852Z,7.10
2022-09-07T05:53:34.855Z,7.20
2022-09-07T05:56:08.451Z,6.90
2022-09-07T05:58:40.530Z,7.00
2022-09-07T06:01:16.454Z,7.00
2022-09-07T06:03:47.942Z,6.20
2022-09-07T06:06:20.770Z,6.60
2022-09-07T06:08:54.234Z,6.70
2022-09-07T06:11:28.518Z,6.60
2022-09-07T06:13:59.995Z,6.90
2022-09-07T06:16:34.441Z,7.50
2022-09-07T06:19:08.893Z,6.80
2022-09-07T06:21:40.839Z,7.80
2022-09-07T06:24:12.467Z,6.90
2022-09-07T06:26:44.066Z,7.50
2022-09-07T06:29:15.662Z,5.60
2022-09-07T06:34:38.608Z,6.20
2022-09-07T06:37:10.707Z,6.10
2022-09-07T06:39:42.253Z,6.70
2022-09-07T06:42:14.005Z,6.90
2022-09-07T06:44:47.868Z,6.20
2022-09-07T06:47:19.370Z,6.70
2022-09-07T06:49:50.826Z,7.50
2022-09-07T06:52:22.565Z,6.80
2022-09-07T06:55:01.487Z,6.20
2022-09-07T06:57:33.189Z,6.90
2022-09-07T07:00:05.792Z,6.50
2022-09-07T07:02:37.268Z,6.40
2022-09-07T07:05:12.776Z,6.50
2022-09-07T07:07:47.225Z,6.30
2022-09-07T07:10:24.194Z,6.20
2022-09-07T07:12:58.471Z,6.30
2022-09-07T07:15:32.806Z,7.10
2022-09-07T07:18:19.753Z,6.50
2022-09-07T07:20:52.335Z,5.70
2022-09-07T07:23:23.989Z,6.30
2022-09-07T07:25:55.458Z,6.00
2022-09-07T07:31:25.873Z,5.90
2022-09-07T07:33:58.428Z,5.60
2022-09-07T07:36:30.895Z,5.70
2022-09-07T07:39:02.929Z,5.90
2022-09-07T07:41:57.359Z,5.60
2022-09-07T07:44:33.088Z,5.80
2022-09-07T07:47:04.686Z,5.80
2022-09-07T07:49:36.125Z,5.50
2022-09-07T07:54:59.480Z,5.00
2022-09-07T07:57:32.551Z,5.30
2022-09-07T08:00:05.453Z,5.20
2022-09-07T08:02:42.944Z,5.00
2022-09-07T08:05:17.093Z,4.70
2022-09-07T08:07:48.521Z,5.40
2022-09-07T08:10:20.064Z,5.80
2022-09-07T08:12:51.864Z,4.70
2022-09-07T08:15:23.463Z,4.80
2022-09-07T08:17:54.862Z,5.30
2022-09-07T08:20:26.508Z,4.70
2022-09-07T08:22:58.212Z,4.00
2022-09-07T08:25:29.659Z,4.80
2022-09-07T08:28:01.068Z,4.10
2022-09-07T08:30:32.600Z,3.90
2022-09-07T08:33:04.136Z,3.90
2022-09-07T08:35:35.635Z,4.20
2022-09-07T08:38:07.156Z,4.60
2022-09-07T08:40:40.233Z,4.70
2022-09-07T08:43:19.907Z,4.20
2022-09-07T08:45:57.755Z,4.50
2022-09-07T08:48:36.743Z,4.50
2022-09-07T08:51:19.051Z,4.10
2022-09-07T08:53:52.733Z,4.70
2022-09-07T08:56:33.433Z,4.20
2022-09-07T08:59:17.927Z,5.10
2022-09-07T09:07:44.770Z,4.00
2022-09-07T09:10:24.055Z,3.90
2022-09-07T09:13:04.225Z,4.40
2022-09-07T09:15:54.378Z,5.00
2022-09-07T09:18:36.793Z,5.00
2022-09-07T09:21:13.987Z,5.20
2022-09-07T09:23:47.491Z,4.60
2022-09-07T09:26:23.822Z,3.70
2022-09-07T09:28:55.411Z,4.70
2022-09-07T09:31:30.451Z,4.80
2022-09-07T09:34:16.276Z,5.00
2022-09-07T09:36:50.085Z,5.10
2022-09-07T09:39:36.150Z,5.00
2022-09-07T09:42:23.321Z,5.10
2022-09-07T09:44:54.941Z,4.80
2022-09-07T09:47:36.038Z,5.20
2022-09-07T09:52:49.322Z,4.80
2022-09-07T09:55:34.902Z,4.80
2022-09-07T10:01:27.324Z,4.70
2022-09-07T10:04:24.403Z,4.80
2022-09-07T10:06:58.305Z,4.80
2022-09-07T10:09:38.012Z,4.90
2022-09-07T10:12:26.232Z,4.00
2022-09-07T10:14:58.175Z,4.20
2022-09-07T10:17:33.520Z,4.00
2022-09-07T10:20:36.325Z,4.70
2022-09-07T10:23:20.393Z,4.90
2022-09-07T10:25:52.120Z,3.80
2022-09-07T10:29:06.556Z,4.70
2022-09-07T10:31:22.685Z,5.90
2022-09-07T10:37:02.599Z,4.70
2022-09-07T10:39:38.606Z,4.50
2022-09-07T10:42:23.471Z,4.40
2022-09-07T10:45:06.818Z,4.30
2022-09-07T10:47:49.498Z,4.10
2022-09-07T10:50:30.904Z,4.40
2022-09-07T10:53:40.296Z,5.20
2022-09-07T10:56:15.883Z,4.10
2022-09-07T10:59:04.257Z,4.40
2022-09-07T11:01:50.956Z,4.90
2022-09-07T11:04:38.337Z,4.40
2022-09-07T11:07:22.774Z,4.30
2022-09-07T11:09:59.885Z,4.10
2022-09-07T11:12:41.287Z,4.60
2022-09-07T11:15:22.121Z,4.50
2022-09-07T11:17:59.048Z,4.70
2022-09-07T11:20:35.526Z,4.30
2022-09-07T11:23:15.904Z,4.60
2022-09-07T11:25:56.925Z,4.70
2022-09-07T11:28:36.715Z,3.60
2022-09-07T11:31:17.025Z,4.50
2022-09-07T11:36:56.380Z,5.50
2022-09-07T11:39:35.327Z,4.20
2022-09-07T11:45:17.181Z,4.20
2022-09-07T11:47:54.281Z,3.90
2022-09-07T11:50:29.733Z,4.00
2022-09-07T11:53:08.064Z,4.30
2022-09-07T11:55:43.644Z,4.10
2022-09-07T11:58:32.131Z,4.50
2022-09-07T12:01:19.477Z,4.20
2022-09-07T12:04:06.826Z,4.50
2022-09-07T12:07:15.475Z,4.30
2022-09-07T12:10:03.666Z,4.30
2022-09-07T12:12:52.681Z,4.00
2022-09-07T12:15:35.411Z,4.30
2022-09-07T12:18:24.000Z,4.10
2022-09-07T12:20:55.853Z,4.90
2022-09-07T12:23:32.232Z,5.10
2022-09-07T12:26:50.360Z,4.20
2022-09-07T12:29:25.585Z,4.30
2022-09-07T12:31:59.644Z,4.10
2022-09-07T12:34:55.549Z,4.10
2022-09-07T12:37:45.222Z,4.00
2022-09-07T12:40:50.677Z,4.20
2022-09-07T12:43:54.656Z,4.80
2022-09-07T12:46:48.258Z,4.60
2022-09-07T12:49:39.290Z,4.10
2022-09-07T12:52:31.760Z,4.60
2022-09-07T12:55:28.896Z,4.50
2022-09-07T12:58:12.647Z,4.50
2022-09-07T13:00:59.204Z,4.60
2022-09-07T13:03:53.005Z,4.80
2022-09-07T13:09:39.563Z,4.30
2022-09-07T13:15:40.726Z,4.60
2022-09-07T13:18:34.383Z,4.60
2022-09-07T13:21:38.706Z,4.90
2022-09-07T13:24:50.458Z,4.70
2022-09-07T13:27:30.178Z,4.70
2022-09-07T13:30:07.525Z,4.30
2022-09-07T13:35:33.770Z,4.70
2022-09-07T13:38:06.124Z,4.90
2022-09-07T13:40:50.518Z,4.60
2022-09-07T13:43:24.037Z,4.70
2022-09-07T13:46:03.643Z,5.00
2022-09-07T13:48:45.256Z,4.90
2022-09-07T13:51:21.585Z,4.80
2022-09-07T13:54:05.482Z,4.40
2022-09-07T13:56:46.579Z,4.90
2022-09-07T13:59:23.418Z,4.40
2022-09-07T14:01:58.411Z,4.40
2022-09-07T14:04:35.255Z,4.30
2022-09-07T14:07:08.461Z,4.70
2022-09-07T14:09:40.185Z,4.90
2022-09-07T14:12:19.195Z,4.90
2022-09-07T14:15:10.702Z,4.80
2022-09-07T14:17:42.671Z,5.00
2022-09-07T14:20:17.998Z,4.60
2022-09-07T14:22:53.380Z,4.60
2022-09-07T14:25:26.434Z,4.50
2022-09-07T14:28:00.216Z,4.70
2022-09-07T14:30:34.151Z,4.40
2022-09-07T14:33:15.193Z,4.30
2022-09-07T14:41:19.491Z,5.10
2022-09-07T14:43:58.500Z,4.90
2022-09-07T14:46:33.303Z,4.40
2022-09-07T14:49:19.710Z,4.40
2022-09-07T14:51:53.479Z,4.60
2022-09-07T14:54:28.307Z,4.50
2022-09-07T14:57:06.315Z,4.40
2022-09-07T14:59:46.547Z,5.00
2022-09-07T15:02:30.107Z,5.00
2022-09-07T15:05:26.308Z,4.80
2022-09-07T15:08:00.135Z,4.70
2022-09-07T15:10:36.814Z,5.20
2022-09-07T15:13:26.067Z,5.20
2022-09-07T15:16:03.075Z,4.90
2022-09-07T15:18:54.628Z,5.60
2022-09-07T15:21:29.633Z,6.10
2022-09-07T15:24:07.393Z,6.20
2022-09-07T15:29:36.956Z,5.30
2022-09-07T15:32:11.685Z,5.00
2022-09-07T15:34:43.301Z,5.30
2022-09-07T15:40:20.577Z,5.10
2022-09-07T15:43:00.000Z,5.20
2022-09-07T15:45:31.894Z,5.20
2022-09-07T15:48:03.969Z,5.90
2022-09-07T15:50:35.440Z,5.80
2022-09-07T15:54:07.547Z,5.50
2022-09-07T15:55:59.064Z,5.20
2022-09-07T15:58:32.148Z,5.00
2022-09-07T16:03:58.470Z,5.60
2022-09-07T16:06:31.593Z,5.50
2022-09-07T16:09:06.243Z,6.20
2022-09-07T16:11:37.933Z,6.50
2022-09-07T16:14:12.327Z,6.60
2022-09-07T16:19:40.828Z,6.00
2022-09-07T16:23:13.230Z,5.90
2022-09-07T16:25:09.194Z,5.80
2022-09-07T16:27:40.637Z,5.90
2022-09-07T16:30:13.749Z,4.80
2022-09-07T16:32:48.042Z,5.50
2022-09-07T16:35:19.641Z,5.00
2022-09-07T16:40:44.659Z,5.60
2022-09-07T16:43:16.411Z,5.30
2022-09-07T16:46:03.663Z,5.50
2022-09-07T16:48:36.973Z,25.90
2022-09-07T16:51:09.577Z,7.90
2022-09-07T16:53:41.135Z,6.90
2022-09-07T16:56:16.659Z,6.30
2022-09-07T16:58:51.070Z,5.30
2022-09-07T17:01:26.340Z,5.30
2022-09-07T17:04:03.530Z,6.50
2022-09-07T17:06:38.676Z,5.60
2022-09-07T17:09:11.431Z,5.00
2022-09-07T17:11:43.134Z,5.50
2022-09-07T17:14:14.619Z,5.30
2022-09-07T17:16:48.207Z,6.00
2022-09-07T17:19:29.422Z,6.10
2022-09-07T17:22:03.068Z,8.50
2022-09-07T17:24:37.141Z,7.20
2022-09-07T17:27:08.858Z,6.40
2022-09-07T17:29:41.713Z,6.20
2022-09-07T17:32:25.065Z,6.80
2022-09-07T17:34:57.074Z,8.90
2022-09-07T17:37:28.534Z,6.40
2022-09-07T17:40:00.124Z,5.90
2022-09-07T17:45:28.042Z,6.10
2022-09-07T17:48:02.228Z,6.00
2022-09-07T17:50:33.770Z,6.00
2022-09-07T17:53:05.286Z,6.10
2022-09-07T17:55:36.872Z,6.50
2022-09-07T17:58:08.287Z,5.80
2022-09-07T18:00:40.141Z,6.00
2022-09-07T18:03:14.470Z,6.90
2022-09-07T18:05:46.147Z,6.30
2022-09-07T18:08:17.651Z,6.10
2022-09-07T18:13:45.918Z,6.80
2022-09-07T18:16:21.131Z,7.10
2022-09-07T18:18:53.344Z,7.10
2022-09-07T18:21:27.600Z,7.10
2022-09-07T18:24:01.470Z,7.00
2022-09-07T18:26:34.117Z,6.80
2022-09-07T18:29:13.204Z,7.10
2022-09-07T18:31:51.124Z,7.10
2022-09-07T18:34:22.656Z,7.00
2022-09-07T18:36:55.361Z,7.10
2022-09-07T18:39:27.542Z,7.50
2022-09-07T18:41:59.275Z,7.80
2022-09-07T18:47:28.417Z,7.00
2022-09-07T18:50:01.811Z,8.00
2022-09-07T18:55:26.808Z,7.50
2022-09-07T18:57:58.475Z,7.90
2022-09-07T19:00:30.267Z,7.40
2022-09-07T19:03:02.070Z,7.50
2022-09-07T19:05:49.996Z,7.70
2022-09-07T19:08:21.899Z,8.00
2022-09-07T19:10:53.553Z,8.10
2022-09-07T19:13:25.091Z,8.10
2022-09-07T19:16:03.640Z,8.90
2022-09-07T19:18:35.643Z,8.40
2022-09-07T19:21:11.401Z,8.00
2022-09-07T19:23:53.203Z,7.90
2022-09-07T19:26:25.639Z,8.10
2022-09-07T19:29:03.217Z,8.50
2022-09-07T19:31:34.931Z,8.20
2022-09-07T19:34:06.607Z,7.50
2022-09-07T19:36:43.234Z,7.70
2022-09-07T19:39:15.295Z,7.70
2022-09-07T19:41:47.070Z,7.60
2022-09-07T19:44:22.068Z,8.10
2022-09-07T19:46:53.592Z,7.70
2022-09-07T19:49:25.178Z,9.00
2022-09-07T19:51:56.904Z,9.10
2022-09-07T19:54:28.352Z,9.00
2022-09-07T19:57:01.438Z,9.00
2022-09-07T19:59:33.068Z,8.80
2022-09-07T20:02:04.651Z,8.70
2022-09-07T20:04:36.199Z,8.60
2022-09-07T20:07:10.584Z,8.40
2022-09-07T20:09:43.662Z,8.20
2022-09-07T20:12:15.641Z,8.40
2022-09-07T20:14:47.403Z,8.30
2022-09-07T20:17:18.944Z,8.30
2022-09-07T20:19:51.525Z,8.00
2022-09-07T20:22:23.070Z,8.30
2022-09-07T20:24:54.572Z,8.60
2022-09-07T20:27:26.273Z,8.40
2022-09-07T20:29:57.763Z,8.80
2022-09-07T20:32:31.544Z,8.30
2022-09-07T20:35:03.030Z,8.40
2022-09-07T20:37:34.551Z,8.30
2022-09-07T20:40:09.214Z,9.60
2022-09-07T20:42:40.909Z,7.90
2022-09-07T20:45:13.438Z,7.90
2022-09-07T20:47:48.565Z,8.70
2022-09-07T20:50:22.728Z,8.30
2022-09-07T20:52:57.837Z,8.70
2022-09-07T20:55:29.934Z,9.60
2022-09-07T20:58:03.922Z,9.50
2022-09-07T21:00:36.352Z,9.50
2022-09-07T21:03:07.880Z,9.60
2022-09-07T21:08:10.601Z,9.60
2022-09-07T21:10:44.895Z,8.50
2022-09-07T21:13:18.588Z,8.60
2022-09-07T21:18:20.298Z,10.40
2022-09-07T21:23:48.583Z,10.10
2022-09-07T21:26:24.275Z,10.40
2022-09-07T21:29:00.135Z,10.20
2022-09-07T21:31:33.442Z,9.80
2022-09-07T21:34:04.961Z,9.60
2022-09-07T21:36:36.542Z,9.50
2022-09-07T21:39:11.408Z,9.20
2022-09-07T21:41:47.443Z,9.40
2022-09-07T21:44:19.130Z,9.30
2022-09-07T21:46:51.135Z,9.20
2022-09-07T21:49:22.648Z,9.50
2022-09-07T21:54:25.782Z,10.40
2022-09-07T21:56:57.285Z,11.30
2022-09-07T22:01:59.057Z,10.70
2022-09-07T22:04:31.137Z,10.40
2022-09-07T22:07:03.930Z,11.30
2022-09-07T22:09:37.864Z,9.90
2022-09-07T22:12:09.756Z,10.80
2022-09-07T22:14:41.260Z,11.40
2022-09-07T22:17:12.758Z,10.40
2022-09-07T22:22:17.713Z,9.80
2022-09-07T22:24:49.931Z,9.30
2022-09-07T22:27:21.395Z,10.40
2022-09-07T22:32:22.848Z,8.60
2022-09-07T22:37:25.077Z,8.30
2022-09-07T22:39:56.591Z,9.50
2022-09-07T22:42:28.055Z,9.00
2022-09-07T22:47:32.280Z,8.40
2022-09-07T22:52:33.996Z,9.00
2022-09-07T22:55:07.383Z,10.20
2022-09-07T22:57:38.830Z,8.90
2022-09-07T23:02:42.267Z,8.80
2022-09-07T23:07:43.844Z,7.90
2022-09-07T23:12:45.555Z,8.30
2022-09-07T23:17:47.004Z,8.60
2022-09-07T23:22:49.333Z,8.50
2022-09-07T23:25:21.425Z,7.60
2022-09-07T23:27:53.145Z,6.90
2022-09-07T23:30:24.777Z,7.60
2022-09-07T23:32:58.925Z,7.00
2022-09-07T23:35:30.793Z,7.50
2022-09-07T23:38:02.266Z,9.90
2022-09-07T23:43:06.873Z,8.40
2022-09-07T23:48:08.753Z,9.90
2022-09-07T23:50:40.543Z,8.20
2022-09-07T23:53:14.252Z,8.20
2022-09-07T23:55:45.962Z,8.20
2022-09-07T23:58:17.558Z,7.60
